sensor_id;sensor_type;location;lat;lon;timestamp;temperature;humidity
71175;DHT22;58876;51.994;4.472;2024-03-23T00:53:44;9.10;77.59
71175;DHT22;58876;51.994;4.472;2024-03-23T00:56:10;9.07;77.89
71175;DHT22;58876;51.994;4.472;2024-03-23T00:58:35;9.06;77.98
71175;DHT22;58876;51.994;4.472;2024-03-23T01:01:01;9.04;78.28
71175;DHT22;58876;51.994;4.472;2024-03-23T01:03:29;8.99;78.55
71175;DHT22;58876;51.994;4.472;2024-03-23T01:05:59;8.92;78.90
71175;DHT22;58876;51.994;4.472;2024-03-23T01:08:25;8.90;78.77
71175;DHT22;58876;51.994;4.472;2024-03-23T01:11:00;8.79;78.77
71175;DHT22;58876;51.994;4.472;2024-03-23T01:13:29;8.79;78.80
71175;DHT22;58876;51.994;4.472;2024-03-23T01:15:56;8.76;78.51
71175;DHT22;58876;51.994;4.472;2024-03-23T01:18:22;8.76;78.29
71175;DHT22;58876;51.994;4.472;2024-03-23T01:20:48;8.73;77.80
71175;DHT22;58876;51.994;4.472;2024-03-23T01:23:14;8.69;77.02
71175;DHT22;58876;51.994;4.472;2024-03-23T01:25:40;8.66;76.34
71175;DHT22;58876;51.994;4.472;2024-03-23T01:28:06;8.69;76.25
71175;DHT22;58876;51.994;4.472;2024-03-23T01:30:35;8.79;75.82
71175;DHT22;58876;51.994;4.472;2024-03-23T01:33:01;8.83;75.94
71175;DHT22;58876;51.994;4.472;2024-03-23T01:35:26;8.82;75.91
71175;DHT22;58876;51.994;4.472;2024-03-23T01:37:52;8.83;75.85
71175;DHT22;58876;51.994;4.472;2024-03-23T01:40:18;8.73;75.95
71175;DHT22;58876;51.994;4.472;2024-03-23T01:42:55;8.66;75.70
71175;DHT22;58876;51.994;4.472;2024-03-23T01:45:20;8.63;75.80
71175;DHT22;58876;51.994;4.472;2024-03-23T01:47:46;8.59;75.76
71175;DHT22;58876;51.994;4.472;2024-03-23T01:50:11;8.45;74.96
71175;DHT22;58876;51.994;4.472;2024-03-23T01:52:37;8.49;75.19
71175;DHT22;58876;51.994;4.472;2024-03-23T01:55:03;8.46;75.06
71175;DHT22;58876;51.994;4.472;2024-03-23T01:57:28;8.52;74.76
71175;DHT22;58876;51.994;4.472;2024-03-23T01:59:53;8.55;74.13
71175;DHT22;58876;51.994;4.472;2024-03-23T02:02:19;8.55;74.25
71175;DHT22;58876;51.994;4.472;2024-03-23T02:04:45;8.58;74.42
71175;DHT22;58876;51.994;4.472;2024-03-23T02:07:10;8.58;74.13
71175;DHT22;58876;51.994;4.472;2024-03-23T02:09:36;8.61;74.00
71175;DHT22;58876;51.994;4.472;2024-03-23T02:12:02;8.58;73.62
71175;DHT22;58876;51.994;4.472;2024-03-23T02:14:28;8.49;74.05
71175;DHT22;58876;51.994;4.472;2024-03-23T02:16:53;8.45;74.28
71175;DHT22;58876;51.994;4.472;2024-03-23T02:19:19;8.46;74.20
71175;DHT22;58876;51.994;4.472;2024-03-23T02:21:44;8.40;74.52
71175;DHT22;58876;51.994;4.472;2024-03-23T02:24:11;8.34;74.38
71175;DHT22;58876;51.994;4.472;2024-03-23T02:26:37;8.31;74.53
71175;DHT22;58876;51.994;4.472;2024-03-23T02:29:02;8.34;74.62
71175;DHT22;58876;51.994;4.472;2024-03-23T02:31:28;8.34;74.62
71175;DHT22;58876;51.994;4.472;2024-03-23T02:33:53;8.33;74.54
71175;DHT22;58876;51.994;4.472;2024-03-23T02:36:19;8.25;74.89
71175;DHT22;58876;51.994;4.472;2024-03-23T02:38:46;8.27;75.12
71175;DHT22;58876;51.994;4.472;2024-03-23T02:41:11;8.21;75.14
71175;DHT22;58876;51.994;4.472;2024-03-23T02:43:37;8.21;75.35
71175;DHT22;58876;51.994;4.472;2024-03-23T02:46:03;8.15;75.29
71175;DHT22;58876;51.994;4.472;2024-03-23T02:48:29;8.13;75.00
71175;DHT22;58876;51.994;4.472;2024-03-23T02:50:55;8.08;75.24
71175;DHT22;58876;51.994;4.472;2024-03-23T02:53:20;8.10;75.08
71175;DHT22;58876;51.994;4.472;2024-03-23T02:55:46;8.10;75.10
71175;DHT22;58876;51.994;4.472;2024-03-23T02:58:11;8.08;74.99
71175;DHT22;58876;51.994;4.472;2024-03-23T03:00:37;8.08;75.02
71175;DHT22;58876;51.994;4.472;2024-03-23T03:03:03;8.00;74.73
71175;DHT22;58876;51.994;4.472;2024-03-23T03:05:28;7.98;74.76
71175;DHT22;58876;51.994;4.472;2024-03-23T03:07:54;7.97;74.89
71175;DHT22;58876;51.994;4.472;2024-03-23T03:10:19;7.94;74.58
71175;DHT22;58876;51.994;4.472;2024-03-23T03:12:44;8.00;74.88
71175;DHT22;58876;51.994;4.472;2024-03-23T03:15:10;8.08;74.61
71175;DHT22;58876;51.994;4.472;2024-03-23T03:17:35;8.03;74.61
71175;DHT22;58876;51.994;4.472;2024-03-23T03:20:01;8.08;74.42
71175;DHT22;58876;51.994;4.472;2024-03-23T03:22:26;8.05;74.30
71175;DHT22;58876;51.994;4.472;2024-03-23T03:24:52;8.01;74.16
71175;DHT22;58876;51.994;4.472;2024-03-23T03:27:17;8.04;74.02
71175;DHT22;58876;51.994;4.472;2024-03-23T03:29:42;8.04;73.66
71175;DHT22;58876;51.994;4.472;2024-03-23T03:32:08;8.03;73.74
71175;DHT22;58876;51.994;4.472;2024-03-23T03:34:34;8.08;73.44
71175;DHT22;58876;51.994;4.472;2024-03-23T03:36:59;8.14;72.76
71175;DHT22;58876;51.994;4.472;2024-03-23T03:39:25;8.17;72.58
71175;DHT22;58876;51.994;4.472;2024-03-23T03:41:50;8.15;72.65
71175;DHT22;58876;51.994;4.472;2024-03-23T03:44:16;8.05;72.69
71175;DHT22;58876;51.994;4.472;2024-03-23T03:46:42;8.03;72.89
71175;DHT22;58876;51.994;4.472;2024-03-23T03:49:07;8.08;72.78
71175;DHT22;58876;51.994;4.472;2024-03-23T03:51:33;8.04;72.08
71175;DHT22;58876;51.994;4.472;2024-03-23T03:53:58;7.94;72.00
71175;DHT22;58876;51.994;4.472;2024-03-23T03:56:24;7.93;72.21
71175;DHT22;58876;51.994;4.472;2024-03-23T03:58:49;8.07;72.23
71175;DHT22;58876;51.994;4.472;2024-03-23T04:01:15;8.08;72.03
71175;DHT22;58876;51.994;4.472;2024-03-23T04:03:40;8.10;71.87
71175;DHT22;58876;51.994;4.472;2024-03-23T04:06:09;8.15;71.91
71175;DHT22;58876;51.994;4.472;2024-03-23T04:08:35;8.11;72.12
71175;DHT22;58876;51.994;4.472;2024-03-23T04:11:01;8.11;72.45
71175;DHT22;58876;51.994;4.472;2024-03-23T04:13:26;8.17;72.28
71175;DHT22;58876;51.994;4.472;2024-03-23T04:15:55;8.10;72.47
71175;DHT22;58876;51.994;4.472;2024-03-23T04:18:21;7.97;72.85
71175;DHT22;58876;51.994;4.472;2024-03-23T04:20:48;7.96;72.98
71175;DHT22;58876;51.994;4.472;2024-03-23T04:23:14;8.05;72.91
71175;DHT22;58876;51.994;4.472;2024-03-23T04:25:39;7.96;73.06
71175;DHT22;58876;51.994;4.472;2024-03-23T04:28:04;7.96;73.52
71175;DHT22;58876;51.994;4.472;2024-03-23T04:30:30;7.82;73.67
71175;DHT22;58876;51.994;4.472;2024-03-23T04:32:57;7.74;74.32
71175;DHT22;58876;51.994;4.472;2024-03-23T04:35:24;7.66;74.15
71175;DHT22;58876;51.994;4.472;2024-03-23T04:37:51;7.62;74.58
71175;DHT22;58876;51.994;4.472;2024-03-23T04:40:21;7.56;74.95
71175;DHT22;58876;51.994;4.472;2024-03-23T04:42:46;7.53;74.97
71175;DHT22;58876;51.994;4.472;2024-03-23T04:45:11;7.62;74.90
71175;DHT22;58876;51.994;4.472;2024-03-23T04:47:38;7.67;74.65
71175;DHT22;58876;51.994;4.472;2024-03-23T04:50:04;7.67;74.56
71175;DHT22;58876;51.994;4.472;2024-03-23T04:52:30;7.59;74.84
71175;DHT22;58876;51.994;4.472;2024-03-23T04:54:56;7.63;75.30
71175;DHT22;58876;51.994;4.472;2024-03-23T04:57:22;7.72;75.23
71175;DHT22;58876;51.994;4.472;2024-03-23T04:59:47;7.73;75.14
71175;DHT22;58876;51.994;4.472;2024-03-23T05:02:14;7.82;75.39
71175;DHT22;58876;51.994;4.472;2024-03-23T05:04:39;7.87;75.44
71175;DHT22;58876;51.994;4.472;2024-03-23T05:07:06;7.90;75.47
71175;DHT22;58876;51.994;4.472;2024-03-23T05:09:32;7.98;75.28
71175;DHT22;58876;51.994;4.472;2024-03-23T05:12:01;8.07;75.22
71175;DHT22;58876;51.994;4.472;2024-03-23T05:14:26;8.13;75.19
71175;DHT22;58876;51.994;4.472;2024-03-23T05:16:52;8.15;75.09
71175;DHT22;58876;51.994;4.472;2024-03-23T05:19:18;8.10;75.07
71175;DHT22;58876;51.994;4.472;2024-03-23T05:21:43;8.10;75.01
71175;DHT22;58876;51.994;4.472;2024-03-23T05:24:09;8.07;74.49
71175;DHT22;58876;51.994;4.472;2024-03-23T05:26:35;8.11;74.21
71175;DHT22;58876;51.994;4.472;2024-03-23T05:29:01;8.21;73.85
71175;DHT22;58876;51.994;4.472;2024-03-23T05:31:29;8.14;73.76
71175;DHT22;58876;51.994;4.472;2024-03-23T05:33:55;8.13;73.84
71175;DHT22;58876;51.994;4.472;2024-03-23T05:36:21;8.18;73.60
71175;DHT22;58876;51.994;4.472;2024-03-23T05:38:48;8.14;73.57
71175;DHT22;58876;51.994;4.472;2024-03-23T05:41:14;7.93;73.97
71175;DHT22;58876;51.994;4.472;2024-03-23T05:43:39;7.83;74.40
71175;DHT22;58876;51.994;4.472;2024-03-23T05:46:04;7.84;74.69
71175;DHT22;58876;51.994;4.472;2024-03-23T05:48:36;7.79;74.74
71175;DHT22;58876;51.994;4.472;2024-03-23T05:51:01;7.84;74.83
71175;DHT22;58876;51.994;4.472;2024-03-23T05:53:27;7.91;74.57
71175;DHT22;58876;51.994;4.472;2024-03-23T05:56:02;7.80;74.26
71175;DHT22;58876;51.994;4.472;2024-03-23T05:58:31;7.80;74.17
71175;DHT22;58876;51.994;4.472;2024-03-23T06:00:58;7.80;73.94
71175;DHT22;58876;51.994;4.472;2024-03-23T06:03:25;7.89;74.09
71175;DHT22;58876;51.994;4.472;2024-03-23T06:05:51;7.87;73.97
71175;DHT22;58876;51.994;4.472;2024-03-23T06:08:18;7.93;74.11
71175;DHT22;58876;51.994;4.472;2024-03-23T06:10:43;8.05;74.00
71175;DHT22;58876;51.994;4.472;2024-03-23T06:13:09;8.13;73.97
71175;DHT22;58876;51.994;4.472;2024-03-23T06:15:34;7.93;74.22
71175;DHT22;58876;51.994;4.472;2024-03-23T06:18:03;8.15;74.22
71175;DHT22;58876;51.994;4.472;2024-03-23T06:20:29;8.08;74.28
71175;DHT22;58876;51.994;4.472;2024-03-23T06:22:54;7.97;74.19
71175;DHT22;58876;51.994;4.472;2024-03-23T06:25:20;8.00;73.80
71175;DHT22;58876;51.994;4.472;2024-03-23T06:27:45;7.91;74.33
71175;DHT22;58876;51.994;4.472;2024-03-23T06:30:11;7.82;73.77
71175;DHT22;58876;51.994;4.472;2024-03-23T06:32:37;8.03;73.79
71175;DHT22;58876;51.994;4.472;2024-03-23T06:35:02;8.04;74.00
71175;DHT22;58876;51.994;4.472;2024-03-23T06:37:36;8.04;74.18
71175;DHT22;58876;51.994;4.472;2024-03-23T06:40:02;8.18;74.00
71175;DHT22;58876;51.994;4.472;2024-03-23T06:42:30;8.15;73.69
71175;DHT22;58876;51.994;4.472;2024-03-23T06:44:55;8.11;73.95
71175;DHT22;58876;51.994;4.472;2024-03-23T06:47:21;8.25;73.21
71175;DHT22;58876;51.994;4.472;2024-03-23T06:49:46;8.35;73.30
71175;DHT22;58876;51.994;4.472;2024-03-23T06:52:11;8.55;72.69
71175;DHT22;58876;51.994;4.472;2024-03-23T06:54:37;8.79;71.88
71175;DHT22;58876;51.994;4.472;2024-03-23T06:57:02;8.86;71.94
71175;DHT22;58876;51.994;4.472;2024-03-23T06:59:30;8.52;72.06
71175;DHT22;58876;51.994;4.472;2024-03-23T07:01:56;8.49;72.38
71175;DHT22;58876;51.994;4.472;2024-03-23T07:04:21;8.37;72.47
71175;DHT22;58876;51.994;4.472;2024-03-23T07:06:50;8.51;72.86
71175;DHT22;58876;51.994;4.472;2024-03-23T07:09:15;8.58;73.02
71175;DHT22;58876;51.994;4.472;2024-03-23T07:11:40;8.61;72.50
71175;DHT22;58876;51.994;4.472;2024-03-23T07:14:06;8.42;72.39
71175;DHT22;58876;51.994;4.472;2024-03-23T07:16:32;8.89;70.97
71175;DHT22;58876;51.994;4.472;2024-03-23T07:18:58;8.79;70.32
71175;DHT22;58876;51.994;4.472;2024-03-23T07:21:23;8.83;71.74
71175;DHT22;58876;51.994;4.472;2024-03-23T07:23:49;10.19;69.01
71175;DHT22;58876;51.994;4.472;2024-03-23T07:26:14;10.91;64.80
71175;DHT22;58876;51.994;4.472;2024-03-23T07:28:40;9.62;67.51
71175;DHT22;58876;51.994;4.472;2024-03-23T07:31:11;9.19;69.88
71175;DHT22;58876;51.994;4.472;2024-03-23T07:33:42;8.86;70.75
71175;DHT22;58876;51.994;4.472;2024-03-23T07:36:09;8.59;71.54
71175;DHT22;58876;51.994;4.472;2024-03-23T07:38:34;9.33;70.01
71175;DHT22;58876;51.994;4.472;2024-03-23T07:41:11;10.13;65.57
71175;DHT22;58876;51.994;4.472;2024-03-23T07:43:38;9.89;65.64
71175;DHT22;58876;51.994;4.472;2024-03-23T07:46:04;9.26;68.35
71175;DHT22;58876;51.994;4.472;2024-03-23T07:48:30;9.10;69.36
71175;DHT22;58876;51.994;4.472;2024-03-23T07:51:05;8.77;69.50
71175;DHT22;58876;51.994;4.472;2024-03-23T07:53:32;8.52;69.83
71175;DHT22;58876;51.994;4.472;2024-03-23T07:56:05;9.38;67.40
71175;DHT22;58876;51.994;4.472;2024-03-23T07:58:32;9.37;67.52
71175;DHT22;58876;51.994;4.472;2024-03-23T08:01:08;10.39;67.10
71175;DHT22;58876;51.994;4.472;2024-03-23T08:03:34;11.02;62.37
71175;DHT22;58876;51.994;4.472;2024-03-23T08:06:17;11.11;62.71
71175;DHT22;58876;51.994;4.472;2024-03-23T08:08:45;11.56;62.15
71175;DHT22;58876;51.994;4.472;2024-03-23T08:11:11;12.37;61.51
71175;DHT22;58876;51.994;4.472;2024-03-23T08:13:39;11.44;62.07
71175;DHT22;58876;51.994;4.472;2024-03-23T08:16:05;10.95;63.51
71175;DHT22;58876;51.994;4.472;2024-03-23T08:18:31;10.32;63.70
71175;DHT22;58876;51.994;4.472;2024-03-23T08:20:57;9.95;65.51
71175;DHT22;58876;51.994;4.472;2024-03-23T08:23:34;9.45;65.83
71175;DHT22;58876;51.994;4.472;2024-03-23T08:26:03;10.42;63.77
71175;DHT22;58876;51.994;4.472;2024-03-23T08:28:29;10.97;63.24
71175;DHT22;58876;51.994;4.472;2024-03-23T08:30:55;11.28;61.19
71175;DHT22;58876;51.994;4.472;2024-03-23T08:33:21;10.71;62.19
71175;DHT22;58876;51.994;4.472;2024-03-23T08:35:57;10.67;61.66
71175;DHT22;58876;51.994;4.472;2024-03-23T08:38:24;9.96;64.31
71175;DHT22;58876;51.994;4.472;2024-03-23T08:41:00;10.40;64.36
71175;DHT22;58876;51.994;4.472;2024-03-23T08:43:26;10.36;63.76
71175;DHT22;58876;51.994;4.472;2024-03-23T08:45:52;9.06;67.76
71175;DHT22;58876;51.994;4.472;2024-03-23T08:48:19;8.37;69.72
71175;DHT22;58876;51.994;4.472;2024-03-23T08:50:46;8.31;71.90
71175;DHT22;58876;51.994;4.472;2024-03-23T08:53:12;8.27;71.60
71175;DHT22;58876;51.994;4.472;2024-03-23T08:55:38;8.34;71.66
71175;DHT22;58876;51.994;4.472;2024-03-23T08:58:03;8.69;71.33
71175;DHT22;58876;51.994;4.472;2024-03-23T09:00:30;8.90;70.85
71175;DHT22;58876;51.994;4.472;2024-03-23T09:02:55;9.07;68.73
71175;DHT22;58876;51.994;4.472;2024-03-23T09:05:22;9.27;67.86
71175;DHT22;58876;51.994;4.472;2024-03-23T09:07:49;9.26;66.97
71175;DHT22;58876;51.994;4.472;2024-03-23T09:10:15;9.19;67.56
71175;DHT22;58876;51.994;4.472;2024-03-23T09:12:40;9.48;66.97
71175;DHT22;58876;51.994;4.472;2024-03-23T09:15:06;9.16;65.98
71175;DHT22;58876;51.994;4.472;2024-03-23T09:17:31;9.13;66.78
71175;DHT22;58876;51.994;4.472;2024-03-23T09:19:57;9.37;66.84
71175;DHT22;58876;51.994;4.472;2024-03-23T09:22:22;9.04;67.54
71175;DHT22;58876;51.994;4.472;2024-03-23T09:24:47;8.77;66.61
71175;DHT22;58876;51.994;4.472;2024-03-23T09:27:13;8.59;67.95
71175;DHT22;58876;51.994;4.472;2024-03-23T09:29:38;8.63;67.52
71175;DHT22;58876;51.994;4.472;2024-03-23T09:32:05;8.75;67.51
71175;DHT22;58876;51.994;4.472;2024-03-23T09:34:30;8.82;67.33
71175;DHT22;58876;51.994;4.472;2024-03-23T09:36:55;8.76;67.82
71175;DHT22;58876;51.994;4.472;2024-03-23T09:39:21;9.04;67.46
71175;DHT22;58876;51.994;4.472;2024-03-23T09:41:46;9.06;65.76
71175;DHT22;58876;51.994;4.472;2024-03-23T09:44:12;9.26;65.85
71175;DHT22;58876;51.994;4.472;2024-03-23T09:46:38;9.55;65.20
71175;DHT22;58876;51.994;4.472;2024-03-23T09:49:07;9.55;64.76
71175;DHT22;58876;51.994;4.472;2024-03-23T09:51:35;9.44;65.74
71175;DHT22;58876;51.994;4.472;2024-03-23T09:54:01;9.06;65.87
71175;DHT22;58876;51.994;4.472;2024-03-23T09:56:26;8.83;67.10
71175;DHT22;58876;51.994;4.472;2024-03-23T09:59:00;9.00;67.59
71175;DHT22;58876;51.994;4.472;2024-03-23T10:01:26;8.97;68.14
71175;DHT22;58876;51.994;4.472;2024-03-23T10:03:51;9.48;67.22
71175;DHT22;58876;51.994;4.472;2024-03-23T10:06:21;9.74;66.32
71175;DHT22;58876;51.994;4.472;2024-03-23T10:08:47;9.95;64.98
71175;DHT22;58876;51.994;4.472;2024-03-23T10:11:16;9.74;64.93
71175;DHT22;58876;51.994;4.472;2024-03-23T10:13:43;9.41;65.24
71175;DHT22;58876;51.994;4.472;2024-03-23T10:16:09;8.97;65.50
71175;DHT22;58876;51.994;4.472;2024-03-23T10:18:39;8.89;66.74
71175;DHT22;58876;51.994;4.472;2024-03-23T10:23:30;9.14;65.24
71175;DHT22;58876;51.994;4.472;2024-03-23T10:26:18;9.22;65.87
71175;DHT22;58876;51.994;4.472;2024-03-23T10:28:55;8.99;66.21
71175;DHT22;58876;51.994;4.472;2024-03-23T10:31:30;9.16;65.37
71175;DHT22;58876;51.994;4.472;2024-03-23T10:33:56;9.74;65.28
71175;DHT22;58876;51.994;4.472;2024-03-23T10:36:25;10.19;62.90
71175;DHT22;58876;51.994;4.472;2024-03-23T10:38:54;9.58;61.88
71175;DHT22;58876;51.994;4.472;2024-03-23T10:41:20;9.51;61.70
71175;DHT22;58876;51.994;4.472;2024-03-23T10:43:48;9.74;62.62
71175;DHT22;58876;51.994;4.472;2024-03-23T10:46:15;9.88;62.68
71175;DHT22;58876;51.994;4.472;2024-03-23T10:48:40;9.95;61.80
71175;DHT22;58876;51.994;4.472;2024-03-23T10:51:10;9.95;61.76
71175;DHT22;58876;51.994;4.472;2024-03-23T10:53:36;9.62;62.03
71175;DHT22;58876;51.994;4.472;2024-03-23T10:56:05;9.48;62.65
71175;DHT22;58876;51.994;4.472;2024-03-23T10:58:36;9.82;62.05
71175;DHT22;58876;51.994;4.472;2024-03-23T11:01:03;10.03;61.82
71175;DHT22;58876;51.994;4.472;2024-03-23T11:03:36;10.06;62.55
71175;DHT22;58876;51.994;4.472;2024-03-23T11:06:03;10.12;62.79
71175;DHT22;58876;51.994;4.472;2024-03-23T11:08:37;10.61;61.44
71175;DHT22;58876;51.994;4.472;2024-03-23T11:11:20;10.37;61.71
71175;DHT22;58876;51.994;4.472;2024-03-23T11:13:51;10.14;59.72
71175;DHT22;58876;51.994;4.472;2024-03-23T11:16:22;10.05;60.11
71175;DHT22;58876;51.994;4.472;2024-03-23T11:18:50;10.40;60.52
71175;DHT22;58876;51.994;4.472;2024-03-23T11:21:53;10.95;59.28
71175;DHT22;58876;51.994;4.472;2024-03-23T11:24:20;10.80;58.49
71175;DHT22;58876;51.994;4.472;2024-03-23T11:26:46;10.34;59.57
71175;DHT22;58876;51.994;4.472;2024-03-23T11:29:15;10.06;59.99
71175;DHT22;58876;51.994;4.472;2024-03-23T11:31:49;10.14;59.12
71175;DHT22;58876;51.994;4.472;2024-03-23T11:34:21;10.06;60.29
71175;DHT22;58876;51.994;4.472;2024-03-23T11:36:48;9.81;61.65
71175;DHT22;58876;51.994;4.472;2024-03-23T11:39:19;10.05;62.05
71175;DHT22;58876;51.994;4.472;2024-03-23T11:41:49;10.37;61.03
71175;DHT22;58876;51.994;4.472;2024-03-23T11:44:27;10.34;60.35
71175;DHT22;58876;51.994;4.472;2024-03-23T11:46:53;10.20;59.54
71175;DHT22;58876;51.994;4.472;2024-03-23T11:49:21;10.09;60.41
71175;DHT22;58876;51.994;4.472;2024-03-23T11:51:48;10.28;60.87
71175;DHT22;58876;51.994;4.472;2024-03-23T11:54:13;9.99;61.72
71175;DHT22;58876;51.994;4.472;2024-03-23T11:56:39;10.43;62.57
71175;DHT22;58876;51.994;4.472;2024-03-23T11:59:04;10.60;59.54
71175;DHT22;58876;51.994;4.472;2024-03-23T12:01:31;10.40;58.29
71175;DHT22;58876;51.994;4.472;2024-03-23T12:03:56;10.10;59.04
71175;DHT22;58876;51.994;4.472;2024-03-23T12:06:22;10.10;59.06
71175;DHT22;58876;51.994;4.472;2024-03-23T12:08:47;10.20;59.53
71175;DHT22;58876;51.994;4.472;2024-03-23T12:11:15;10.03;60.88
71175;DHT22;58876;51.994;4.472;2024-03-23T12:13:43;9.85;60.83
71175;DHT22;58876;51.994;4.472;2024-03-23T12:16:10;9.86;60.71
71175;DHT22;58876;51.994;4.472;2024-03-23T12:18:36;10.28;60.21
71175;DHT22;58876;51.994;4.472;2024-03-23T12:21:03;10.39;60.00
71175;DHT22;58876;51.994;4.472;2024-03-23T12:23:28;10.56;61.65
71175;DHT22;58876;51.994;4.472;2024-03-23T12:25:54;10.46;61.00
71175;DHT22;58876;51.994;4.472;2024-03-23T12:28:19;9.99;60.49
71175;DHT22;58876;51.994;4.472;2024-03-23T12:30:44;10.06;62.04
71175;DHT22;58876;51.994;4.472;2024-03-23T12:33:10;10.40;61.10
71175;DHT22;58876;51.994;4.472;2024-03-23T12:35:36;10.01;61.04
71175;DHT22;58876;51.994;4.472;2024-03-23T12:38:02;10.03;60.88
71175;DHT22;58876;51.994;4.472;2024-03-23T12:40:27;10.74;60.85
71175;DHT22;58876;51.994;4.472;2024-03-23T12:42:55;11.31;60.27
71175;DHT22;58876;51.994;4.472;2024-03-23T12:45:22;11.12;60.25
71175;DHT22;58876;51.994;4.472;2024-03-23T12:47:47;10.82;57.63
71175;DHT22;58876;51.994;4.472;2024-03-23T12:50:13;10.67;58.67
71175;DHT22;58876;51.994;4.472;2024-03-23T12:52:38;10.63;58.14
71175;DHT22;58876;51.994;4.472;2024-03-23T12:55:05;10.20;60.07
71175;DHT22;58876;51.994;4.472;2024-03-23T12:57:31;10.65;58.51
71175;DHT22;58876;51.994;4.472;2024-03-23T12:59:57;10.30;59.08
71175;DHT22;58876;51.994;4.472;2024-03-23T13:02:23;10.13;62.94
71175;DHT22;58876;51.994;4.472;2024-03-23T13:04:52;9.65;64.05
71175;DHT22;58876;51.994;4.472;2024-03-23T13:07:19;9.64;64.82
71175;DHT22;58876;51.994;4.472;2024-03-23T13:09:45;9.61;62.68
71175;DHT22;58876;51.994;4.472;2024-03-23T13:12:11;9.91;64.26
71175;DHT22;58876;51.994;4.472;2024-03-23T13:14:39;9.81;60.85
71175;DHT22;58876;51.994;4.472;2024-03-23T13:17:06;9.58;60.38
71175;DHT22;58876;51.994;4.472;2024-03-23T13:19:32;9.68;60.01
71175;DHT22;58876;51.994;4.472;2024-03-23T13:21:58;9.75;59.46
71175;DHT22;58876;51.994;4.472;2024-03-23T13:24:25;9.44;60.80
71175;DHT22;58876;51.994;4.472;2024-03-23T13:26:52;9.64;60.08
71175;DHT22;58876;51.994;4.472;2024-03-23T13:29:20;9.99;60.85
71175;DHT22;58876;51.994;4.472;2024-03-23T13:31:47;10.02;59.50
71175;DHT22;58876;51.994;4.472;2024-03-23T13:34:13;9.82;60.70
71175;DHT22;58876;51.994;4.472;2024-03-23T13:36:42;9.89;61.31
71175;DHT22;58876;51.994;4.472;2024-03-23T13:39:09;9.65;60.41
71175;DHT22;58876;51.994;4.472;2024-03-23T13:41:44;9.26;61.12
71175;DHT22;58876;51.994;4.472;2024-03-23T13:44:12;9.00;61.73
71175;DHT22;58876;51.994;4.472;2024-03-23T13:46:38;8.55;62.30
71175;DHT22;58876;51.994;4.472;2024-03-23T13:49:05;8.55;63.36
71175;DHT22;58876;51.994;4.472;2024-03-23T13:51:31;8.68;64.64
71175;DHT22;58876;51.994;4.472;2024-03-23T13:53:57;8.33;68.04
71175;DHT22;58876;51.994;4.472;2024-03-23T13:56:23;8.03;68.94
71175;DHT22;58876;51.994;4.472;2024-03-23T13:58:48;8.04;69.47
71175;DHT22;58876;51.994;4.472;2024-03-23T14:01:15;7.59;70.43
71175;DHT22;58876;51.994;4.472;2024-03-23T14:03:41;8.04;70.29
71175;DHT22;58876;51.994;4.472;2024-03-23T14:06:07;8.58;69.09
71175;DHT22;58876;51.994;4.472;2024-03-23T14:08:34;8.68;68.11
71175;DHT22;58876;51.994;4.472;2024-03-23T14:11:02;8.24;68.40
71175;DHT22;58876;51.994;4.472;2024-03-23T14:13:28;8.37;68.61
71175;DHT22;58876;51.994;4.472;2024-03-23T14:15:54;8.42;71.08
71175;DHT22;58876;51.994;4.472;2024-03-23T14:18:19;9.16;72.16
71175;DHT22;58876;51.994;4.472;2024-03-23T14:20:45;9.00;70.39
71175;DHT22;58876;51.994;4.472;2024-03-23T14:23:10;8.87;71.08
71175;DHT22;58876;51.994;4.472;2024-03-23T14:25:35;9.14;69.94
71175;DHT22;58876;51.994;4.472;2024-03-23T14:28:01;9.51;69.86
71175;DHT22;58876;51.994;4.472;2024-03-23T14:30:26;8.97;69.37
71175;DHT22;58876;51.994;4.472;2024-03-23T14:32:52;9.17;68.45
71175;DHT22;58876;51.994;4.472;2024-03-23T14:35:17;9.10;70.22
71175;DHT22;58876;51.994;4.472;2024-03-23T14:37:43;9.04;69.87
71175;DHT22;58876;51.994;4.472;2024-03-23T14:40:08;9.10;70.18
71175;DHT22;58876;51.994;4.472;2024-03-23T14:42:34;9.24;68.87
71175;DHT22;58876;51.994;4.472;2024-03-23T14:45:00;9.26;68.36
71175;DHT22;58876;51.994;4.472;2024-03-23T14:47:25;9.55;67.72
71175;DHT22;58876;51.994;4.472;2024-03-23T14:49:51;9.79;66.82
71175;DHT22;58876;51.994;4.472;2024-03-23T14:52:19;10.51;64.00
71175;DHT22;58876;51.994;4.472;2024-03-23T14:54:46;10.36;60.00
71175;DHT22;58876;51.994;4.472;2024-03-23T14:57:12;10.06;58.60
71175;DHT22;58876;51.994;4.472;2024-03-23T14:59:38;9.74;58.97
71175;DHT22;58876;51.994;4.472;2024-03-23T15:02:07;10.13;60.13
71175;DHT22;58876;51.994;4.472;2024-03-23T15:04:33;10.12;61.07
71175;DHT22;58876;51.994;4.472;2024-03-23T15:06:59;10.33;59.39
71175;DHT22;58876;51.994;4.472;2024-03-23T15:09:24;10.26;59.66
71175;DHT22;58876;51.994;4.472;2024-03-23T15:11:50;9.95;60.45
71175;DHT22;58876;51.994;4.472;2024-03-23T15:14:15;10.10;61.45
71175;DHT22;58876;51.994;4.472;2024-03-23T15:16:41;10.47;61.33
71175;DHT22;58876;51.994;4.472;2024-03-23T15:19:07;10.14;62.15
71175;DHT22;58876;51.994;4.472;2024-03-23T15:21:33;9.81;62.07
71175;DHT22;58876;51.994;4.472;2024-03-23T15:23:58;9.65;62.72
71175;DHT22;58876;51.994;4.472;2024-03-23T15:26:24;9.28;64.34
71175;DHT22;58876;51.994;4.472;2024-03-23T15:28:49;9.40;64.36
71175;DHT22;58876;51.994;4.472;2024-03-23T15:31:25;9.10;65.55
71175;DHT22;58876;51.994;4.472;2024-03-23T15:33:51;9.33;65.51
71175;DHT22;58876;51.994;4.472;2024-03-23T15:36:17;9.70;65.12
71175;DHT22;58876;51.994;4.472;2024-03-23T15:38:43;9.70;66.18
71175;DHT22;58876;51.994;4.472;2024-03-23T15:41:09;9.59;66.48
71175;DHT22;58876;51.994;4.472;2024-03-23T15:43:35;9.54;65.19
71175;DHT22;58876;51.994;4.472;2024-03-23T15:46:03;9.77;63.94
71175;DHT22;58876;51.994;4.472;2024-03-23T15:48:29;10.32;62.99
71175;DHT22;58876;51.994;4.472;2024-03-23T15:51:02;10.44;63.23
71175;DHT22;58876;51.994;4.472;2024-03-23T15:53:31;11.01;62.91
71175;DHT22;58876;51.994;4.472;2024-03-23T15:58:24;9.83;62.70
71175;DHT22;58876;51.994;4.472;2024-03-23T16:01:07;9.86;63.29
71175;DHT22;58876;51.994;4.472;2024-03-23T16:03:37;9.88;63.07
71175;DHT22;58876;51.994;4.472;2024-03-23T16:06:04;9.95;63.35
71175;DHT22;58876;51.994;4.472;2024-03-23T16:08:31;9.91;61.98
71175;DHT22;58876;51.994;4.472;2024-03-23T16:11:04;9.88;61.75
71175;DHT22;58876;51.994;4.472;2024-03-23T16:13:34;9.93;61.02
71175;DHT22;58876;51.994;4.472;2024-03-23T16:16:04;10.08;60.72
71175;DHT22;58876;51.994;4.472;2024-03-23T16:18:33;9.98;60.61
71175;DHT22;58876;51.994;4.472;2024-03-23T16:21:01;9.72;61.54
71175;DHT22;58876;51.994;4.472;2024-03-23T16:23:28;9.82;62.19
71175;DHT22;58876;51.994;4.472;2024-03-23T16:25:55;9.71;62.62
71175;DHT22;58876;51.994;4.472;2024-03-23T16:28:27;9.50;62.40
71175;DHT22;58876;51.994;4.472;2024-03-23T16:31:03;9.57;64.09
71175;DHT22;58876;51.994;4.472;2024-03-23T16:33:30;9.92;62.96
71175;DHT22;58876;51.994;4.472;2024-03-23T16:38:36;9.98;62.27
71175;DHT22;58876;51.994;4.472;2024-03-23T16:41:07;9.85;61.38